sensor_id;sensor_type;location;lat;lon;timestamp;pressure;altitude;pressure_sealevel;temperature;humidity
19789;BME280;10054;59.332;18.244;2022-09-09T00:00:35;101777.27;;;10.78;82.50
19789;BME280;10054;59.332;18.244;2022-09-09T00:03:14;101778.38;;;10.82;82.43
19789;BME280;10054;59.332;18.244;2022-09-09T00:05:52;101773.81;;;10.86;82.14
19789;BME280;10054;59.332;18.244;2022-09-09T00:08:19;101775.39;;;10.90;81.71
19789;BME280;10054;59.332;18.244;2022-09-09T00:10:58;101766.87;;;10.94;81.44
19789;BME280;10054;59.332;18.244;2022-09-09T00:13:30;101767.59;;;10.97;81.12
19789;BME280;10054;59.332;18.244;2022-09-09T00:16:15;101765.27;;;11.00;80.94
19789;BME280;10054;59.332;18.244;2022-09-09T00:30:16;101764.63;;;11.22;79.39
19789;BME280;10054;59.332;18.244;2022-09-09T00:32:48;101757.35;;;11.27;79.32
19789;BME280;10054;59.332;18.244;2022-09-09T00:35:25;101761.56;;;11.31;79.22
19789;BME280;10054;59.332;18.244;2022-09-09T00:37:57;101760.41;;;11.37;79.13
19789;BME280;10054;59.332;18.244;2022-09-09T00:40:35;101753.27;;;11.39;79.22
19789;BME280;10054;59.332;18.244;2022-09-09T00:43:40;101751.80;;;11.42;79.27
19789;BME280;10054;59.332;18.244;2022-09-09T00:52:22;101746.38;;;11.45;80.00
19789;BME280;10054;59.332;18.244;2022-09-09T00:57:35;101746.55;;;11.50;80.45
19789;BME280;10054;59.332;18.244;2022-09-09T01:00:22;101744.75;;;11.51;80.90
19789;BME280;10054;59.332;18.244;2022-09-09T01:02:56;101738.47;;;11.53;81.25
19789;BME280;10054;59.332;18.244;2022-09-09T01:05:46;101738.00;;;11.54;81.71
19789;BME280;10054;59.332;18.244;2022-09-09T01:08:29;101734.89;;;11.55;81.69
19789;BME280;10054;59.332;18.244;2022-09-09T01:10:57;101729.92;;;11.57;81.86
19789;BME280;10054;59.332;18.244;2022-09-09T01:13:29;101734.28;;;11.58;82.17
19789;BME280;10054;59.332;18.244;2022-09-09T01:16:04;101735.98;;;11.59;82.43
19789;BME280;10054;59.332;18.244;2022-09-09T01:18:40;101731.02;;;11.62;82.75
19789;BME280;10054;59.332;18.244;2022-09-09T01:26:50;101724.66;;;11.66;83.22
19789;BME280;10054;59.332;18.244;2022-09-09T01:29:22;101729.86;;;11.67;83.29
19789;BME280;10054;59.332;18.244;2022-09-09T01:31:56;101721.94;;;11.67;83.75
19789;BME280;10054;59.332;18.244;2022-09-09T01:34:28;101718.05;;;11.66;83.96
19789;BME280;10054;59.332;18.244;2022-09-09T01:37:08;101723.48;;;11.63;84.67
19789;BME280;10054;59.332;18.244;2022-09-09T01:39:40;101724.41;;;11.62;84.88
19789;BME280;10054;59.332;18.244;2022-09-09T01:42:13;101724.17;;;11.58;85.25
19789;BME280;10054;59.332;18.244;2022-09-09T01:44:42;101725.57;;;11.56;85.57
19789;BME280;10054;59.332;18.244;2022-09-09T01:47:13;101721.68;;;11.55;86.09
19789;BME280;10054;59.332;18.244;2022-09-09T01:49:53;101726.03;;;11.56;86.02
19789;BME280;10054;59.332;18.244;2022-09-09T01:52:24;101720.67;;;11.57;86.31
19789;BME280;10054;59.332;18.244;2022-09-09T01:54:53;101723.70;;;11.58;87.20
19789;BME280;10054;59.332;18.244;2022-09-09T01:57:38;101719.59;;;11.61;87.46
19789;BME280;10054;59.332;18.244;2022-09-09T02:00:10;101719.91;;;11.64;87.37
19789;BME280;10054;59.332;18.244;2022-09-09T02:03:08;101714.47;;;11.67;87.92
19789;BME280;10054;59.332;18.244;2022-09-09T02:08:40;101705.38;;;11.72;88.11
19789;BME280;10054;59.332;18.244;2022-09-09T02:11:15;101699.47;;;11.76;88.68
19789;BME280;10054;59.332;18.244;2022-09-09T02:13:48;101703.78;;;11.78;88.77
19789;BME280;10054;59.332;18.244;2022-09-09T02:16:24;101702.31;;;11.81;88.91
19789;BME280;10054;59.332;18.244;2022-09-09T02:19:00;101700.45;;;11.83;89.26
19789;BME280;10054;59.332;18.244;2022-09-09T02:21:30;101700.75;;;11.86;89.38
19789;BME280;10054;59.332;18.244;2022-09-09T02:24:04;101688.31;;;11.88;89.56
19789;BME280;10054;59.332;18.244;2022-09-09T02:26:37;101684.23;;;11.90;89.78
19789;BME280;10054;59.332;18.244;2022-09-09T02:29:10;101684.55;;;11.92;89.63
19789;BME280;10054;59.332;18.244;2022-09-09T02:31:41;101683.07;;;11.95;89.98
19789;BME280;10054;59.332;18.244;2022-09-09T02:34:14;101680.66;;;11.99;89.99
19789;BME280;10054;59.332;18.244;2022-09-09T02:36:45;101676.14;;;12.01;90.50
19789;BME280;10054;59.332;18.244;2022-09-09T02:39:15;101677.77;;;12.04;90.05
19789;BME280;10054;59.332;18.244;2022-09-09T02:41:45;101682.44;;;12.07;90.38
19789;BME280;10054;59.332;18.244;2022-09-09T02:44:17;101684.53;;;12.09;90.03
19789;BME280;10054;59.332;18.244;2022-09-09T02:47:18;101682.75;;;12.10;90.79
19789;BME280;10054;59.332;18.244;2022-09-09T02:55:24;101681.49;;;12.17;89.53
19789;BME280;10054;59.332;18.244;2022-09-09T02:57:51;101678.30;;;12.19;89.42
19789;BME280;10054;59.332;18.244;2022-09-09T03:00:29;101675.11;;;12.21;89.47
19789;BME280;10054;59.332;18.244;2022-09-09T03:03:00;101668.88;;;12.22;89.54
19789;BME280;10054;59.332;18.244;2022-09-09T03:05:29;101670.98;;;12.24;89.45
19789;BME280;10054;59.332;18.244;2022-09-09T03:07:59;101663.81;;;12.26;89.44
19789;BME280;10054;59.332;18.244;2022-09-09T03:10:34;101674.23;;;12.29;89.73
19789;BME280;10054;59.332;18.244;2022-09-09T03:13:04;101672.36;;;12.31;89.58
19789;BME280;10054;59.332;18.244;2022-09-09T03:15:35;101667.37;;;12.34;89.63
19789;BME280;10054;59.332;18.244;2022-09-09T03:18:05;101665.59;;;12.34;89.55
19789;BME280;10054;59.332;18.244;2022-09-09T03:20:35;101661.07;;;12.36;89.95
19789;BME280;10054;59.332;18.244;2022-09-09T03:23:04;101662.39;;;12.36;90.32
19789;BME280;10054;59.332;18.244;2022-09-09T03:25:34;101657.02;;;12.38;90.35
19789;BME280;10054;59.332;18.244;2022-09-09T03:28:03;101655.61;;;12.39;90.75
19789;BME280;10054;59.332;18.244;2022-09-09T03:30:32;101652.97;;;12.39;91.73
19789;BME280;10054;59.332;18.244;2022-09-09T03:33:02;101650.23;;;12.41;91.05
19789;BME280;10054;59.332;18.244;2022-09-09T03:35:31;101651.95;;;12.42;91.47
19789;BME280;10054;59.332;18.244;2022-09-09T03:38:01;101648.45;;;12.41;91.37
19789;BME280;10054;59.332;18.244;2022-09-09T03:40:32;101645.80;;;12.41;91.08
19789;BME280;10054;59.332;18.244;2022-09-09T03:43:01;101646.19;;;12.42;91.50
19789;BME280;10054;59.332;18.244;2022-09-09T03:45:30;101649.69;;;12.43;91.12
19789;BME280;10054;59.332;18.244;2022-09-09T03:48:00;101650.55;;;12.43;91.14
19789;BME280;10054;59.332;18.244;2022-09-09T03:50:30;101643.37;;;12.45;91.08
19789;BME280;10054;59.332;18.244;2022-09-09T03:53:00;101645.39;;;12.49;90.73
19789;BME280;10054;59.332;18.244;2022-09-09T03:55:29;101646.63;;;12.50;90.75
19789;BME280;10054;59.332;18.244;2022-09-09T03:57:58;101641.64;;;12.53;90.79
19789;BME280;10054;59.332;18.244;2022-09-09T04:00:28;101638.52;;;12.54;90.84
19789;BME280;10054;59.332;18.244;2022-09-09T04:02:58;101636.73;;;12.54;91.23
19789;BME280;10054;59.332;18.244;2022-09-09T04:05:28;101636.27;;;12.55;90.99
19789;BME280;10054;59.332;18.244;2022-09-09T04:07:58;101634.86;;;12.56;90.64
19789;BME280;10054;59.332;18.244;2022-09-09T04:10:27;101637.89;;;12.57;90.49
19789;BME280;10054;59.332;18.244;2022-09-09T04:12:57;101617.05;;;12.51;90.14
19789;BME280;10054;59.332;18.244;2022-09-09T04:15:27;101617.05;;;12.51;90.14
19789;BME280;10054;59.332;18.244;2022-09-09T04:17:57;101630.91;;;12.63;89.48
19789;BME280;10054;59.332;18.244;2022-09-09T04:20:26;101630.91;;;12.63;89.48
19789;BME280;10054;59.332;18.244;2022-09-09T04:22:55;101632.14;;;12.65;89.02
19789;BME280;10054;59.332;18.244;2022-09-09T04:25:24;101633.85;;;12.66;88.80
19789;BME280;10054;59.332;18.244;2022-09-09T04:27:55;101631.97;;;12.68;88.57
19789;BME280;10054;59.332;18.244;2022-09-09T04:30:25;101637.66;;;12.69;88.41
19789;BME280;10054;59.332;18.244;2022-09-09T04:32:56;101633.59;;;12.70;88.13
19789;BME280;10054;59.332;18.244;2022-09-09T04:35:25;101641.84;;;12.73;86.58
19789;BME280;10054;59.332;18.244;2022-09-09T04:37:55;101638.77;;;12.80;84.99
19789;BME280;10054;59.332;18.244;2022-09-09T04:40:25;101633.05;;;12.88;83.59
19789;BME280;10054;59.332;18.244;2022-09-09T04:42:54;101630.70;;;12.91;83.70
19789;BME280;10054;59.332;18.244;2022-09-09T04:45:23;101636.20;;;12.95;83.10
19789;BME280;10054;59.332;18.244;2022-09-09T04:47:54;101634.80;;;12.96;83.15
19789;BME280;10054;59.332;18.244;2022-09-09T04:50:24;101636.89;;;12.98;82.94
19789;BME280;10054;59.332;18.244;2022-09-09T04:52:55;101633.77;;;12.99;82.54
19789;BME280;10054;59.332;18.244;2022-09-09T04:55:24;101634.63;;;12.99;81.82
19789;BME280;10054;59.332;18.244;2022-09-09T04:57:53;101631.80;;;13.02;80.25
19789;BME280;10054;59.332;18.244;2022-09-09T05:00:21;101632.09;;;13.05;80.39
19789;BME280;10054;59.332;18.244;2022-09-09T05:02:51;101638.16;;;13.07;79.92
19789;BME280;10054;59.332;18.244;2022-09-09T05:05:20;101635.43;;;13.08;79.27
19789;BME280;10054;59.332;18.244;2022-09-09T05:07:50;101633.55;;;13.10;79.25
19789;BME280;10054;59.332;18.244;2022-09-09T05:10:19;101631.67;;;13.12;79.11
19789;BME280;10054;59.332;18.244;2022-09-09T05:12:55;101637.73;;;13.14;77.78
19789;BME280;10054;59.332;18.244;2022-09-09T05:15:26;101634.00;;;13.19;75.96
19789;BME280;10054;59.332;18.244;2022-09-09T05:17:59;101635.45;;;13.24;73.75
19789;BME280;10054;59.332;18.244;2022-09-09T05:20:29;101641.25;;;13.31;73.43
19789;BME280;10054;59.332;18.244;2022-09-09T05:22:59;101631.11;;;13.37;73.70
19789;BME280;10054;59.332;18.244;2022-09-09T05:25:30;101638.06;;;13.47;74.06
19789;BME280;10054;59.332;18.244;2022-09-09T05:27:59;101636.22;;;13.63;72.37
19789;BME280;10054;59.332;18.244;2022-09-09T05:30:28;101640.30;;;13.69;71.14
19789;BME280;10054;59.332;18.244;2022-09-09T05:32:58;101638.89;;;13.70;70.88
19789;BME280;10054;59.332;18.244;2022-09-09T05:35:28;101642.87;;;13.70;69.58
19789;BME280;10054;59.332;18.244;2022-09-09T05:37:59;101641.65;;;13.76;69.92
19789;BME280;10054;59.332;18.244;2022-09-09T05:40:29;101641.97;;;13.93;68.55
19789;BME280;10054;59.332;18.244;2022-09-09T05:43:00;101643.30;;;14.00;67.83
19789;BME280;10054;59.332;18.244;2022-09-09T05:45:29;101643.69;;;14.01;67.88
19789;BME280;10054;59.332;18.244;2022-09-09T05:47:59;101643.78;;;13.99;68.53
19789;BME280;10054;59.332;18.244;2022-09-09T05:50:30;101650.22;;;13.95;67.68
19789;BME280;10054;59.332;18.244;2022-09-09T05:52:59;101650.58;;;13.89;67.21
19789;BME280;10054;59.332;18.244;2022-09-09T05:55:28;101654.66;;;13.88;68.29
19789;BME280;10054;59.332;18.244;2022-09-09T05:57:57;101661.97;;;13.98;68.91
19789;BME280;10054;59.332;18.244;2022-09-09T06:00:27;101656.56;;;14.21;68.69
19789;BME280;10054;59.332;18.244;2022-09-09T06:02:58;101654.61;;;14.46;67.50
19789;BME280;10054;59.332;18.244;2022-09-09T06:05:27;101655.08;;;14.67;66.00
19789;BME280;10054;59.332;18.244;2022-09-09T06:07:57;101651.34;;;14.84;65.18
19789;BME280;10054;59.332;18.244;2022-09-09T06:10:27;101655.71;;;14.85;63.74
19789;BME280;10054;59.332;18.244;2022-09-09T06:12:57;101655.06;;;14.74;63.98
19789;BME280;10054;59.332;18.244;2022-09-09T06:15:26;101667.41;;;14.54;62.92
19789;BME280;10054;59.332;18.244;2022-09-09T06:17:59;101663.25;;;14.42;64.43
19789;BME280;10054;59.332;18.244;2022-09-09T06:20:28;101659.98;;;14.30;65.21
19789;BME280;10054;59.332;18.244;2022-09-09T06:22:58;101666.81;;;14.27;66.27
19789;BME280;10054;59.332;18.244;2022-09-09T06:25:27;101664.44;;;14.23;66.87
19789;BME280;10054;59.332;18.244;2022-09-09T06:27:56;101667.27;;;14.20;66.65
19789;BME280;10054;59.332;18.244;2022-09-09T06:30:25;101662.16;;;14.17;66.39
19789;BME280;10054;59.332;18.244;2022-09-09T06:32:56;101657.98;;;14.20;65.98
19789;BME280;10054;59.332;18.244;2022-09-09T06:35:25;101659.70;;;14.21;65.57
19789;BME280;10054;59.332;18.244;2022-09-09T06:37:55;101657.23;;;14.18;64.74
19789;BME280;10054;59.332;18.244;2022-09-09T06:40:24;101665.38;;;14.14;65.45
19789;BME280;10054;59.332;18.244;2022-09-09T06:42:53;101661.11;;;14.12;65.30
19789;BME280;10054;59.332;18.244;2022-09-09T06:45:26;101651.06;;;14.17;65.50
19789;BME280;10054;59.332;18.244;2022-09-09T06:48:00;101655.62;;;14.22;66.25
19789;BME280;10054;59.332;18.244;2022-09-09T06:50:32;101664.72;;;14.25;66.10
19789;BME280;10054;59.332;18.244;2022-09-09T06:53:01;101651.77;;;14.42;65.93
19789;BME280;10054;59.332;18.244;2022-09-09T06:55:30;101659.07;;;14.53;64.96
19789;BME280;10054;59.332;18.244;2022-09-09T06:57:59;101659.64;;;14.51;63.71
19789;BME280;10054;59.332;18.244;2022-09-09T07:00:29;101662.77;;;14.43;64.72
19789;BME280;10054;59.332;18.244;2022-09-09T07:02:59;101671.84;;;14.39;64.39
19789;BME280;10054;59.332;18.244;2022-09-09T07:05:29;101672.59;;;14.34;64.96
19789;BME280;10054;59.332;18.244;2022-09-09T07:07:58;101676.95;;;14.35;65.28
19789;BME280;10054;59.332;18.244;2022-09-09T07:10:28;101671.84;;;14.32;65.46
19789;BME280;10054;59.332;18.244;2022-09-09T07:12:57;101678.76;;;14.34;66.10
19789;BME280;10054;59.332;18.244;2022-09-09T07:15:28;101671.65;;;14.35;65.95
19789;BME280;10054;59.332;18.244;2022-09-09T07:18:00;101664.34;;;14.38;65.75
19789;BME280;10054;59.332;18.244;2022-09-09T07:20:30;101659.36;;;14.48;65.16
19789;BME280;10054;59.332;18.244;2022-09-09T07:22:59;101670.81;;;14.70;65.25
19789;BME280;10054;59.332;18.244;2022-09-09T07:25:29;101662.60;;;14.87;62.50
19789;BME280;10054;59.332;18.244;2022-09-09T07:27:58;101672.16;;;15.04;64.51
19789;BME280;10054;59.332;18.244;2022-09-09T07:30:28;101682.55;;;15.21;63.36
19789;BME280;10054;59.332;18.244;2022-09-09T07:32:58;101681.47;;;15.31;61.54
19789;BME280;10054;59.332;18.244;2022-09-09T07:35:27;101680.67;;;15.43;62.36
19789;BME280;10054;59.332;18.244;2022-09-09T07:37:57;101681.39;;;15.52;62.02
19789;BME280;10054;59.332;18.244;2022-09-09T07:40:26;101680.38;;;15.67;61.76
19789;BME280;10054;59.332;18.244;2022-09-09T07:42:55;101670.20;;;15.87;60.92
19789;BME280;10054;59.332;18.244;2022-09-09T07:45:24;101677.57;;;16.08;60.45
19789;BME280;10054;59.332;18.244;2022-09-09T07:47:55;101678.69;;;16.12;59.28
19789;BME280;10054;59.332;18.244;2022-09-09T07:50:24;101681.72;;;16.00;58.39
19789;BME280;10054;59.332;18.244;2022-09-09T07:52:53;101692.69;;;15.75;58.74
19789;BME280;10054;59.332;18.244;2022-09-09T07:55:23;101684.93;;;15.45;59.41
19789;BME280;10054;59.332;18.244;2022-09-09T07:57:55;101682.73;;;15.25;60.02
19789;BME280;10054;59.332;18.244;2022-09-09T08:00:24;101680.55;;;15.25;61.26
19789;BME280;10054;59.332;18.244;2022-09-09T08:02:55;101676.94;;;15.26;61.80
19789;BME280;10054;59.332;18.244;2022-09-09T08:05:24;101675.13;;;15.26;61.56
19789;BME280;10054;59.332;18.244;2022-09-09T08:07:53;101676.97;;;15.11;61.63
19789;BME280;10054;59.332;18.244;2022-09-09T08:10:23;101679.65;;;15.04;62.35
19789;BME280;10054;59.332;18.244;2022-09-09T08:12:54;101688.30;;;15.01;63.27
19789;BME280;10054;59.332;18.244;2022-09-09T08:15:23;101682.80;;;14.97;62.99
19789;BME280;10054;59.332;18.244;2022-09-09T08:17:53;101686.60;;;14.93;63.08
19789;BME280;10054;59.332;18.244;2022-09-09T08:20:22;101691.53;;;14.92;62.24
19789;BME280;10054;59.332;18.244;2022-09-09T08:22:51;101687.47;;;14.86;62.25
19789;BME280;10054;59.332;18.244;2022-09-09T08:25:20;101692.20;;;14.88;62.35
19789;BME280;10054;59.332;18.244;2022-09-09T08:27:49;101705.28;;;14.98;62.10
19789;BME280;10054;59.332;18.244;2022-09-09T08:30:18;101695.98;;;14.98;59.77
19789;BME280;10054;59.332;18.244;2022-09-09T08:32:49;101695.33;;;14.95;59.50
19789;BME280;10054;59.332;18.244;2022-09-09T08:35:18;101707.09;;;14.98;60.14
19789;BME280;10054;59.332;18.244;2022-09-09T08:37:49;101702.64;;;14.91;59.90
19789;BME280;10054;59.332;18.244;2022-09-09T08:40:22;101699.98;;;14.91;61.55
19789;BME280;10054;59.332;18.244;2022-09-09T08:42:53;101700.02;;;14.84;62.89
19789;BME280;10054;59.332;18.244;2022-09-09T08:45:42;101696.70;;;14.81;63.82
19789;BME280;10054;59.332;18.244;2022-09-09T08:48:25;101700.17;;;14.88;63.99
19789;BME280;10054;59.332;18.244;2022-09-09T08:50:52;101695.98;;;14.98;61.85
19789;BME280;10054;59.332;18.244;2022-09-09T08:53:29;101691.80;;;15.01;61.14
19789;BME280;10054;59.332;18.244;2022-09-09T08:56:09;101685.41;;;15.18;60.87
19789;BME280;10054;59.332;18.244;2022-09-09T08:58:53;101696.77;;;15.27;59.09
19789;BME280;10054;59.332;18.244;2022-09-09T09:04:14;101693.67;;;15.13;58.98
19789;BME280;10054;59.332;18.244;2022-09-09T09:12:25;101697.72;;;15.26;58.85
19789;BME280;10054;59.332;18.244;2022-09-09T09:14:56;101697.09;;;15.16;60.05
19789;BME280;10054;59.332;18.244;2022-09-09T09:17:29;101699.66;;;15.10;58.99
19789;BME280;10054;59.332;18.244;2022-09-09T09:20:01;101703.17;;;15.10;58.66
19789;BME280;10054;59.332;18.244;2022-09-09T09:25:23;101703.83;;;15.48;57.52
19789;BME280;10054;59.332;18.244;2022-09-09T09:28:16;101690.56;;;15.61;56.61
19789;BME280;10054;59.332;18.244;2022-09-09T09:30:55;101696.91;;;15.65;56.86
19789;BME280;10054;59.332;18.244;2022-09-09T09:33:49;101694.53;;;15.68;58.72
19789;BME280;10054;59.332;18.244;2022-09-09T09:36:35;101700.77;;;15.74;57.79
19789;BME280;10054;59.332;18.244;2022-09-09T09:38:59;101682.34;;;15.91;58.14
19789;BME280;10054;59.332;18.244;2022-09-09T09:41:41;101688.64;;;16.02;59.03
19789;BME280;10054;59.332;18.244;2022-09-09T09:44:31;101683.33;;;16.15;57.54
19789;BME280;10054;59.332;18.244;2022-09-09T09:47:11;101679.70;;;16.16;56.99
19789;BME280;10054;59.332;18.244;2022-09-09T09:49:54;101676.72;;;16.08;58.44
19789;BME280;10054;59.332;18.244;2022-09-09T09:52:30;101698.97;;;16.07;59.70
19789;BME280;10054;59.332;18.244;2022-09-09T09:54:57;101680.23;;;16.08;60.07
19789;BME280;10054;59.332;18.244;2022-09-09T09:57:31;101677.51;;;16.03;60.20
19789;BME280;10054;59.332;18.244;2022-09-09T10:00:17;101680.11;;;15.97;60.42
19789;BME280;10054;59.332;18.244;2022-09-09T10:02:50;101673.61;;;15.89;60.25
19789;BME280;10054;59.332;18.244;2022-09-09T10:05:31;101678.97;;;15.82;59.21
19789;BME280;10054;59.332;18.244;2022-09-09T10:08:02;101680.42;;;15.93;58.95
19789;BME280;10054;59.332;18.244;2022-09-09T10:10:54;101669.67;;;15.94;58.22
19789;BME280;10054;59.332;18.244;2022-09-09T10:16:01;101681.52;;;16.16;56.29
19789;BME280;10054;59.332;18.244;2022-09-09T10:18:47;101669.53;;;16.16;56.54
19789;BME280;10054;59.332;18.244;2022-09-09T10:30:00;101664.82;;;15.61;55.28
19789;BME280;10054;59.332;18.244;2022-09-09T10:32:49;101673.83;;;15.66;56.86
19789;BME280;10054;59.332;18.244;2022-09-09T10:35:34;101671.77;;;15.76;57.08
19789;BME280;10054;59.332;18.244;2022-09-09T10:40:48;101661.09;;;15.84;56.19
19789;BME280;10054;59.332;18.244;2022-09-09T10:52:05;101668.92;;;15.92;56.52
19789;BME280;10054;59.332;18.244;2022-09-09T10:57:29;101659.20;;;15.98;58.14
19789;BME280;10054;59.332;18.244;2022-09-09T10:59:58;101671.13;;;16.18;58.20
19789;BME280;10054;59.332;18.244;2022-09-09T11:02:30;101656.11;;;16.30;58.39
19789;BME280;10054;59.332;18.244;2022-09-09T11:05:13;101656.38;;;16.51;57.84
19789;BME280;10054;59.332;18.244;2022-09-09T11:08:01;101659.03;;;16.63;56.55
19789;BME280;10054;59.332;18.244;2022-09-09T11:13:03;101657.99;;;16.66;55.60
19789;BME280;10054;59.332;18.244;2022-09-09T11:15:42;101660.15;;;16.79;55.80
19789;BME280;10054;59.332;18.244;2022-09-09T11:18:14;101654.27;;;16.87;55.94
19789;BME280;10054;59.332;18.244;2022-09-09T11:20:41;101660.04;;;16.81;54.74
19789;BME280;10054;59.332;18.244;2022-09-09T11:23:16;101657.63;;;16.83;55.31
19789;BME280;10054;59.332;18.244;2022-09-09T11:25:48;101647.64;;;16.74;55.10
19789;BME280;10054;59.332;18.244;2022-09-09T11:37:15;101647.02;;;16.45;55.00
19789;BME280;10054;59.332;18.244;2022-09-09T11:40:14;101650.86;;;16.41;55.52
19789;BME280;10054;59.332;18.244;2022-09-09T11:42:38;101652.39;;;16.20;55.62
19789;BME280;10054;59.332;18.244;2022-09-09T11:45:18;101650.05;;;16.15;56.18
19789;BME280;10054;59.332;18.244;2022-09-09T11:47:50;101650.20;;;16.06;56.95
19789;BME280;10054;59.332;18.244;2022-09-09T11:52:49;101640.09;;;16.24;57.30
19789;BME280;10054;59.332;18.244;2022-09-09T11:55:33;101639.92;;;16.33;55.47
19789;BME280;10054;59.332;18.244;2022-09-09T12:00:43;101635.08;;;16.51;56.79
19789;BME280;10054;59.332;18.244;2022-09-09T12:03:34;101641.58;;;16.47;57.89
19789;BME280;10054;59.332;18.244;2022-09-09T12:06:31;101636.31;;;16.39;56.50
19789;BME280;10054;59.332;18.244;2022-09-09T12:09:32;101634.55;;;16.27;57.12
19789;BME280;10054;59.332;18.244;2022-09-09T12:11:38;101633.17;;;16.22;57.68
19789;BME280;10054;59.332;18.244;2022-09-09T12:14:19;101630.66;;;16.26;58.42
19789;BME280;10054;59.332;18.244;2022-09-09T12:16:39;101636.03;;;16.31;59.21
19789;BME280;10054;59.332;18.244;2022-09-09T12:24:35;101635.53;;;16.63;56.08
19789;BME280;10054;59.332;18.244;2022-09-09T12:27:12;101636.19;;;16.54;56.07
19789;BME280;10054;59.332;18.244;2022-09-09T12:30:01;101627.30;;;16.48;55.98
19789;BME280;10054;59.332;18.244;2022-09-09T12:32:30;101628.90;;;16.32;56.31
19789;BME280;10054;59.332;18.244;2022-09-09T12:35:25;101629.49;;;16.04;58.17
19789;BME280;10054;59.332;18.244;2022-09-09T12:37:51;101626.30;;;15.99;57.55
19789;BME280;10054;59.332;18.244;2022-09-09T12:42:53;101629.86;;;15.93;57.78
19789;BME280;10054;59.332;18.244;2022-09-09T12:45:31;101627.84;;;16.09;58.55
19789;BME280;10054;59.332;18.244;2022-09-09T12:48:08;101624.22;;;16.23;58.06
19789;BME280;10054;59.332;18.244;2022-09-09T12:50:48;101620.17;;;16.17;57.02
19789;BME280;10054;59.332;18.244;2022-09-09T12:53:21;101619.75;;;16.10;58.07
19789;BME280;10054;59.332;18.244;2022-09-09T12:55:58;101620.06;;;16.19;58.32
19789;BME280;10054;59.332;18.244;2022-09-09T12:58:24;101616.19;;;16.17;58.54
19789;BME280;10054;59.332;18.244;2022-09-09T13:00:54;101613.30;;;16.20;58.79
19789;BME280;10054;59.332;18.244;2022-09-09T13:03:27;101611.33;;;16.29;58.97
19789;BME280;10054;59.332;18.244;2022-09-09T13:05:58;101607.11;;;16.32;58.87
19789;BME280;10054;59.332;18.244;2022-09-09T13:08:30;101613.68;;;16.39;59.21
19789;BME280;10054;59.332;18.244;2022-09-09T13:11:03;101608.44;;;16.51;59.12
19789;BME280;10054;59.332;18.244;2022-09-09T13:13:37;101603.19;;;16.62;58.95
19789;BME280;10054;59.332;18.244;2022-09-09T13:16:18;101607.92;;;16.77;59.27
19789;BME280;10054;59.332;18.244;2022-09-09T13:18:39;101602.78;;;16.86;58.01
19789;BME280;10054;59.332;18.244;2022-09-09T13:21:09;101604.81;;;16.83;58.12
19789;BME280;10054;59.332;18.244;2022-09-09T13:23:38;101613.84;;;16.93;57.74
19789;BME280;10054;59.332;18.244;2022-09-09T13:26:22;101608.14;;;16.92;57.76
19789;BME280;10054;59.332;18.244;2022-09-09T13:28:53;101603.18;;;16.93;57.01
19789;BME280;10054;59.332;18.244;2022-09-09T13:31:28;101602.22;;;16.94;57.32
19789;BME280;10054;59.332;18.244;2022-09-09T13:33:55;101605.95;;;16.91;56.25
19789;BME280;10054;59.332;18.244;2022-09-09T13:36:33;101595.41;;;16.90;56.77
19789;BME280;10054;59.332;18.244;2022-09-09T13:39:03;101598.08;;;16.90;57.06
19789;BME280;10054;59.332;18.244;2022-09-09T13:41:36;101594.04;;;16.84;56.61
19789;BME280;10054;59.332;18.244;2022-09-09T13:44:14;101598.12;;;16.77;56.58
19789;BME280;10054;59.332;18.244;2022-09-09T13:46:43;101591.83;;;16.78;56.30
19789;BME280;10054;59.332;18.244;2022-09-09T13:51:49;101589.27;;;16.77;54.77
19789;BME280;10054;59.332;18.244;2022-09-09T13:54:20;101587.09;;;16.76;54.80
19789;BME280;10054;59.332;18.244;2022-09-09T13:56:50;101589.53;;;16.79;56.20
19789;BME280;10054;59.332;18.244;2022-09-09T13:59:20;101582.98;;;16.78;56.91
19789;BME280;10054;59.332;18.244;2022-09-09T14:01:49;101591.72;;;16.80;57.09
19789;BME280;10054;59.332;18.244;2022-09-09T14:04:20;101593.16;;;16.78;56.74
19789;BME280;10054;59.332;18.244;2022-09-09T14:06:50;101591.94;;;16.77;56.95
19789;BME280;10054;59.332;18.244;2022-09-09T14:09:19;101592.20;;;16.79;56.38
19789;BME280;10054;59.332;18.244;2022-09-09T14:11:48;101591.53;;;16.70;56.92
19789;BME280;10054;59.332;18.244;2022-09-09T14:14:18;101590.72;;;16.62;57.20
19789;BME280;10054;59.332;18.244;2022-09-09T14:16:47;101584.28;;;16.59;57.50
19789;BME280;10054;59.332;18.244;2022-09-09T14:19:16;101589.53;;;16.48;57.45
19789;BME280;10054;59.332;18.244;2022-09-09T14:21:46;101585.08;;;16.36;57.49
19789;BME280;10054;59.332;18.244;2022-09-09T14:24:15;101581.45;;;16.31;57.68
19789;BME280;10054;59.332;18.244;2022-09-09T14:26:44;101581.09;;;16.18;57.70
19789;BME280;10054;59.332;18.244;2022-09-09T14:29:13;101588.34;;;16.03;58.44
19789;BME280;10054;59.332;18.244;2022-09-09T14:31:49;101583.50;;;15.90;58.08
19789;BME280;10054;59.332;18.244;2022-09-09T14:34:18;101578.34;;;15.81;58.42
19789;BME280;10054;59.332;18.244;2022-09-09T14:36:47;101575.09;;;15.83;58.45
19789;BME280;10054;59.332;18.244;2022-09-09T14:39:16;101582.66;;;15.89;58.57
19789;BME280;10054;59.332;18.244;2022-09-09T14:41:46;101568.97;;;15.88;58.51
19789;BME280;10054;59.332;18.244;2022-09-09T14:44:14;101569.98;;;15.93;59.00
19789;BME280;10054;59.332;18.244;2022-09-09T14:46:45;101563.33;;;15.93;58.90